Flight Track Log - Related Links

Times and Time Zones

All times are in EDT time to prevent confusion due to time zone crossing. See the TRS273 flight status page for this flight to view local times or setup timezone preferences in your user account.

Time Position Orientation Groundspeed Altitude Reporting Facility
EDT Latitude Longitude Course Direction KTS MPH feet Rate Location/Type
Mon 06:32:19 AM 38.8833 -77.0667 287° West 181 208 2,200  Level Potomac TRACON
Mon 06:33:19 AM 38.9333 -77.1167 322° Northwest 243 280 4,200 2,333 Climbing Potomac TRACON
Mon 06:34:07 AM 38.9833 -77.1667 322° Northwest 261 300 6,400 2,833 Climbing Potomac TRACON
Mon 06:35:07 AM 39.0333 -77.2167 322° Northwest 271 312 9,300 2,000 Climbing Potomac TRACON
Mon 06:37:00 AM 39.0956 -77.5844 287° West  Level Estimated
Mon 06:37:07 AM 39.1800 -77.3400 327° Northwest 321 369 12,400  Level Washington Center
Mon 06:38:05 AM 39.2453 -77.4381 311° West 340 391 14,400 2,288 Climbing Washington Center
Mon 06:39:05 AM 39.3125 -77.5364 311° West 354 407 16,900 2,250 Climbing Washington Center
Mon 06:40:05 AM 39.3817 -77.6375 312° West 372 428 18,900 2,182 Climbing Washington Center
Mon 06:41:06 AM 39.4528 -77.7392 312° West 377 434 21,300 2,164 Climbing Washington Center
Mon 06:42:07 AM 39.5219 -77.8406 312° West 394 453 23,300 1,934 Climbing Washington Center
Mon 06:43:07 AM 39.5694 -77.9714 295° West 399 459 25,200 1,595 Climbing Washington Center
Mon 06:45:00 AM 39.6556 -78.2547 292° West 417 480 27,900 1,483 Climbing Cleveland Center
Mon 06:46:01 AM 39.7006 -78.4042 291° West 435 501 29,500 1,805 Climbing Cleveland Center
Mon 06:47:03 AM 39.7431 -78.5500 291° West 436 502 31,600 1,756 Climbing Cleveland Center
Mon 06:48:04 AM 39.7803 -78.6792 291° West 430 495 33,100 1,623 Climbing Cleveland Center
Mon 06:49:05 AM 39.8525 -78.8289 302° West 410 472 34,900 927 Climbing Cleveland Center
Mon 06:50:07 AM 39.9125 -78.9567 302° West 414 476 35,000 537 Climbing Cleveland Center
Mon 06:51:08 AM 39.9658 -79.0692 302° West 413 475 36,000 492 Climbing Cleveland Center
Mon 06:52:09 AM 40.0231 -79.1894 302° West 397 457 36,000  Level Cleveland Center
Mon 06:53:10 AM 40.0811 -79.3092 302° West 395 455 36,000  Level Cleveland Center
Mon 06:54:12 AM 40.1494 -79.4569 301° West 398 458 36,000  Level Cleveland Center
Mon 06:55:13 AM 40.2064 -79.5789 301° West 396 456 36,000  Level Cleveland Center
Mon 06:56:15 AM 40.2636 -79.7011 302° West 395 455 36,000  Level Cleveland Center
Mon 06:57:16 AM 40.3208 -79.8247 301° West 399 459 36,000  Level Cleveland Center
Mon 06:58:17 AM 40.3772 -79.9486 301° West 398 458 36,000  Level Cleveland Center
Mon 06:59:19 AM 40.4417 -80.0861 302° West 398 458 36,000  Level Cleveland Center
Mon 07:00:20 AM 40.4989 -80.2122 301° West 402 463 36,000  Level Cleveland Center
Mon 07:01:22 AM 40.5567 -80.3378 301° West 403 464 36,000  Level Cleveland Center
Mon 07:02:23 AM 40.6136 -80.4667 300° West 403 464 36,000  Level Cleveland Center
Mon 07:03:24 AM 40.6722 -80.5942 301° West 403 464 36,000  Level Cleveland Center
Mon 07:04:26 AM 40.7278 -80.7197 300° West 405 466 36,000  Level Cleveland Center
Mon 07:05:28 AM 40.7842 -80.8456 301° West 402 463 36,000  Level Cleveland Center
Mon 07:06:29 AM 40.8403 -80.9722 300° West 400 460 36,000  Level Cleveland Center
Mon 07:07:30 AM 40.9158 -81.0944 309° West 404 465 36,000  Level Cleveland Center
Mon 07:08:32 AM 41.0003 -81.2308 309° West 406 467 36,000  Level Cleveland Center
Mon 07:09:33 AM 41.0706 -81.3467 309° West 402 463 36,000  Level Cleveland Center
Mon 07:10:35 AM 41.1375 -81.4556 309° West 404 465 36,000  Level Cleveland Center
Mon 07:11:36 AM 41.2083 -81.5717 309° West 404 465 36,000  Level Cleveland Center
Mon 07:12:38 AM 41.2800 -81.6869 310° West 405 466 36,000  Level Cleveland Center
Mon 07:13:39 AM 41.3497 -81.8061 308° West 408 470 36,000  Level Cleveland Center
Mon 07:14:41 AM 41.4350 -81.9444 309° West 409 471 36,000  Level Cleveland Center
Mon 07:15:43 AM 41.5067 -82.0631 309° West 407 468 36,000  Level Cleveland Center
Mon 07:16:44 AM 41.5792 -82.1817 309° West 408 470 36,000  Level Cleveland Center
Mon 07:17:46 AM 41.6508 -82.3031 308° West 412 474 36,000  Level Cleveland Center
Mon 07:18:47 AM 41.7128 -82.4069 309° West 410 472 36,000  Level Cleveland Center
Mon 07:19:49 AM 41.7975 -82.5497 309° West 409 471 36,000  Level Cleveland Center
Mon 07:20:50 AM 41.8694 -82.6689 309° West 413 475 36,000  Level Cleveland Center
Mon 07:21:52 AM 41.9394 -82.7894 308° West 411 473 36,000  Level Cleveland Center
Mon 07:22:53 AM 42.0094 -82.9097 308° West 409 471 36,000  Level Cleveland Center
Mon 07:23:55 AM 42.0792 -83.0311 308° West 411 473 36,000  Level Cleveland Center
Mon 07:24:57 AM 42.1492 -83.1519 308° West 412 474 36,000  Level Cleveland Center
Mon 07:25:58 AM 42.2322 -83.2956 308° West 412 474 36,000  Level Cleveland Center
Mon 07:27:00 AM 42.3050 -83.4183 309° West 415 478 36,000  Level Cleveland Center
Mon 07:28:01 AM 42.3767 -83.5422 308° West 416 479 36,000  Level Cleveland Center
Mon 07:29:03 AM 42.4406 -83.6564 307° West 418 481 36,000  Level Cleveland Center
Mon 07:30:04 AM 42.5108 -83.7797 308° West 416 479 36,000  Level Cleveland Center
Mon 07:31:06 AM 42.5953 -83.9283 308° West 416 479 36,000  Level Cleveland Center
Mon 07:32:07 AM 42.6650 -84.0525 307° West 416 479 36,000  Level Cleveland Center
Mon 07:33:09 AM 42.7361 -84.1769 308° West 417 480 36,000  Level Cleveland Center
Mon 07:34:11 AM 42.8044 -84.3006 307° West 412 474 36,000  Level Cleveland Center
Mon 07:35:12 AM 42.8817 -84.4344 308° West 415 478 36,000  Level Cleveland Center
Mon 07:36:14 AM 42.9492 -84.5578 307° West 409 471 36,000  Level Cleveland Center
Mon 07:37:15 AM 43.0178 -84.6833 307° West 413 475 36,000  Level Cleveland Center
Mon 07:38:17 AM 43.0869 -84.8072 307° West 412 474 36,000  Level Cleveland Center
Mon 07:39:18 AM 43.1383 -84.9458 297° West 413 475 36,000  Level Cleveland Center
Mon 07:40:20 AM 43.1489 -85.1028 275° West 419 482 36,000 -439 Level Cleveland Center
Mon 07:41:21 AM 43.1522 -85.2619 272° West 419 482 35,100 -976 Descending Cleveland Center
Mon 07:42:23 AM 43.1575 -85.4553 272° West 426 490 34,000 -1,065 Descending Cleveland Center
Mon 07:43:25 AM 43.1611 -85.6186 272° West 432 497 32,900 -2,000 Descending Cleveland Center
Mon 07:44:26 AM 43.1653 -85.7839 272° West 437 503 29,900 -2,683 Descending Cleveland Center
Mon 07:45:28 AM 43.1694 -85.9447 272° West 432 497 27,400 -2,098 Descending Cleveland Center
Mon 07:46:29 AM 43.1708 -86.0994 271° West 419 482 25,600 -1,610 Descending Cleveland Center
Mon 07:47:31 AM 43.1667 -86.2864 268° West 417 480 24,100 -1,248 Descending Cleveland Center
Mon 07:48:58 AM 43.1622 -86.4961 268° West 402 463 22,500 -1,047 Descending Chicago Center
Mon 07:50:00 AM 43.1603 -86.6478 269° West 401 461 21,500 -1,024 Descending Chicago Center
Mon 07:51:01 AM 43.1567 -86.7997 268° West 403 464 20,400 -1,268 Descending Chicago Center
Mon 07:52:03 AM 43.1539 -86.9467 269° West 392 451 18,900 -1,610 Descending Chicago Center
Mon 07:53:04 AM 43.1492 -87.1192 268° West 383 441 17,100 -1,854 Descending Chicago Center
Mon 07:54:06 AM 43.1461 -87.2603 268° West 373 429 15,100 -1,839 Descending Chicago Center
Mon 07:55:08 AM 43.1433 -87.3797 268° West 360 414 13,300 -1,902 Descending Chicago Center
Mon 07:56:09 AM 43.1264 -87.5342 262° West 345 397 11,200 -1,707 Descending Chicago Center
Mon 07:57:11 AM 43.0931 -87.6431 247° West 315 362 9,800 -1,645 Descending Chicago Center
Mon 07:58:13 AM 43.0592 -87.7444 245° Southwest 298 343 7,800 -1,366 Descending Chicago Center
Mon 07:59:14 AM 43.0289 -87.8406 247° West 279 321 7,000 -390 Descending Chicago Center
Mon 08:00:16 AM 43.0144 -87.9242 257° West 232 267 7,000 -339 Level Chicago Center
Mon 08:01:18 AM 42.9969 -88.0125 255° West 237 273 6,300 -1,024 Descending Chicago Center
Mon 08:02:19 AM 42.9831 -88.0981 258° West 232 267 4,900 -1,122 Descending Chicago Center
Mon 08:03:21 AM 42.9678 -88.1806 256° West 229 264 4,000 -435 Descending Chicago Center
Mon 08:04:23 AM 42.9083 -88.2056 197° South 229 264 4,000 -488 Level Chicago Center
Mon 08:05:24 AM 42.8814 -88.1461 122° Southeast 222 255 3,000 -488 Descending Chicago Center
Mon 08:06:26 AM 42.9000 -88.0767 70° East 205 236 3,000 -387 Level Chicago Center
Mon 08:07:28 AM 42.9153 -88.0089 73° East 195 224 2,200 -726 Descending Chicago Center
Mon 08:08:30 AM 42.9264 -87.9631 72° East 153 176 1,500 -677 Descending Chicago Center

Login

Don't have an account? Register now (free) for customized features, flight alerts, and more!